Atlantic Companion — SKPE — position and weather

sailwx.info

Track history (hours):
 
Tides and Currents Weather Stations Pressure Air Temp Water Temp Dewpoint Dewpoint Depression Visibility Wind Speed Wind Dir Waves Ship Positions

Atlantic Companion

Last reported at 2014-Jul-22 05:07 UTC. Time now 2014-Jul-22 07:22 UTC.
Position N 53°28' W 003°01'.

Length 292 m; beam 32.3 m; draft 11.6 m.

Type: Cargo ship. MMSI: 265142000.

Date/timePositionNaut miles runAvg speedWind from/ knotsBaromVisibWave heightAir tempDewpointWater temp
2014-Jul-22 05:07N 53°28' W 003°01'0 0.0
2014-Jul-22 00:31N 53°28' W 003°01'0 0.0
2014-Jul-21 23:25N 53°28' W 003°01'0 0.0
2014-Jul-21 22:31N 53°28' W 003°01'0 0.0
2014-Jul-21 21:31N 53°28' W 003°01'0 0.0
2014-Jul-21 20:31N 53°28' W 003°01'0 0.0
2014-Jul-21 20:13N 53°28' W 003°01'0 0.0
2014-Jul-21 19:31N 53°28' W 003°01'1 0.7
2014-Jul-21 18:33N 53°27' W 003°01'0 0.2
2014-Jul-21 17:33N 53°27' W 003°01'3 3.4
2014-Jul-21 16:33N 53°29' W 003°05'1010.2
2014-Jul-21 15:33N 53°31' W 003°22'2019.8
2014-Jul-21 14:33N 53°29' W 003°55'1717.0
2014-Jul-21 13:34N 53°28' W 004°23'80 8.9
2014-Jul-21 04:33N 52°18' W 005°29'1616.0
2014-Jul-21 03:33N 52°03' W 005°38'1616.3
2014-Jul-21 02:33N 51°48' W 005°47'20310.0
2014-Jul-20 06:22N 50°19' W 000°57'1614.9
2014-Jul-20 05:18N 50°23' W 000°33'1414.1
2014-Jul-20 04:20N 50°27' W 000°12'1013.4
2014-Jul-20 03:33N 50°29' E 000°04'1312.8
2014-Jul-20 02:33N 50°33' E 000°23'1312.9
2014-Jul-20 01:33N 50°38' E 000°42'1514.7
2014-Jul-20 00:33N 50°47' E 001°00'1615.9
2014-Jul-19 23:33N 50°56' E 001°20'1615.8
2014-Jul-19 22:33N 51°07' E 001°38'1514.8
2014-Jul-19 21:34N 51°19' E 001°53'10 9.9
2014-Jul-19 20:34N 51°23' E 002°07'1312.6
2014-Jul-19 19:34N 51°22' E 002°28'1312.9
2014-Jul-19 18:33N 51°22' E 002°48'1616.2
2014-Jul-19 17:33N 51°25' E 003°14'1414.4
2014-Jul-19 16:33N 51°26' E 003°37'1010.5
2014-Jul-19 15:33N 51°21' E 003°52'8 8.2
2014-Jul-19 14:33N 51°22' E 004°04'8 7.9
2014-Jul-19 13:33N 51°20' E 004°17'0 0.0
2014-Jul-19 12:33N 51°20' E 004°17'0 0.0
2014-Jul-19 11:33N 51°20' E 004°17'0 0.0
2014-Jul-19 10:33N 51°20' E 004°17'0 0.0
2014-Jul-19 09:33N 51°20' E 004°17'0 0.0
2014-Jul-19 08:33N 51°20' E 004°17'0 0.0
2014-Jul-19 07:33N 51°20' E 004°17'0 0.0
2014-Jul-19 06:33N 51°20' E 004°17'0 0.0
2014-Jul-19 05:33N 51°20' E 004°17'0 0.0
2014-Jul-19 04:33N 51°20' E 004°17'0 0.0
2014-Jul-19 03:33N 51°20' E 004°17'0 0.0
2014-Jul-19 02:33N 51°20' E 004°17'0 0.0
2014-Jul-19 01:33N 51°20' E 004°17'0 0.0
2014-Jul-19 00:33N 51°20' E 004°17'0 0.0
2014-Jul-18 23:33N 51°20' E 004°17'0 0.0
2014-Jul-18 22:33N 51°20' E 004°17'0 0.0
2014-Jul-18 21:33N 51°20' E 004°17'2 1.9
2014-Jul-18 20:34N 51°21' E 004°14'10 9.6
2014-Jul-18 19:33N 51°26' E 004°01'1211.6
2014-Jul-18 18:33N 51°24' E 003°43'9 9.2
2014-Jul-18 17:33N 51°25' E 003°28'1312.6
2014-Jul-18 16:32N 51°24' E 003°07'1010.6
2014-Jul-18 15:33N 51°34' E 003°09'1513.6
2014-Jul-18 14:27N 51°49' E 003°15'9 9.0
2014-Jul-18 13:24N 51°58' E 003°19'8 9.0
2014-Jul-18 12:33N 52°05' E 003°21'5 4.7
2014-Jul-18 11:33N 52°10' E 003°19'7 7.3
2014-Jul-18 10:33N 52°17' E 003°24'9 9.4
2014-Jul-18 09:33N 52°26' E 003°27'1313.4
2014-Jul-18 08:33N 52°39' E 003°31'9 8.7
2014-Jul-18 07:33N 52°47' E 003°34'0 0.3
2014-Jul-18 06:29N 52°48' E 003°34'0 0.1
2014-Jul-18 05:32N 52°48' E 003°34'0 0.1
2014-Jul-18 04:29N 52°47' E 003°34'0 0.0
2014-Jul-18 03:32N 52°47' E 003°34'0 0.0
2014-Jul-18 02:32N 52°47' E 003°34'0 0.0
2014-Jul-18 01:32N 52°47' E 003°34'2 1.8
2014-Jul-18 00:33N 52°47' E 003°37'9 9.4
2014-Jul-17 23:33N 52°52' E 003°50'1514.7
2014-Jul-17 22:33N 53°02' E 004°07'1414.0
2014-Jul-17 21:33N 53°12' E 004°24'1313.5
2014-Jul-17 20:34N 53°24' E 004°34'1313.0
2014-Jul-17 19:34N 53°32' E 004°51'1514.9
2014-Jul-17 18:34N 53°37' E 005°14'1615.8
2014-Jul-17 17:34N 53°42' E 005°40'1615.7
2014-Jul-17 16:33N 53°47' E 006°05'1515.1
2014-Jul-17 15:34N 53°50' E 006°30'1414.3
2014-Jul-17 14:33N 53°54' E 006°53'2713.3
2014-Jul-17 12:33N 54°01' E 007°37'1312.9
2014-Jul-17 11:33N 54°02' E 007°59'5 5.2
2014-Jul-17 10:32N 54°02' E 008°08'0 0.2
2014-Jul-17 09:32N 54°02' E 008°08'0 0.1
2014-Jul-17 08:32N 54°02' E 008°07'0 0.0
2014-Jul-17 07:32N 54°02' E 008°07'0 0.0
2014-Jul-17 06:31N 54°02' E 008°07'0 0.0
2014-Jul-17 05:32N 54°02' E 008°07'0 0.1
2014-Jul-17 04:32N 54°02' E 008°08'0 0.2
2014-Jul-17 03:31N 54°02' E 008°08'0 0.1
2014-Jul-17 02:31N 54°02' E 008°08'0 0.0
2014-Jul-17 01:32N 54°02' E 008°08'0 0.0
2014-Jul-17 00:32N 54°02' E 008°08'0 0.0
2014-Jul-16 23:32N 54°02' E 008°08'0 0.1
2014-Jul-16 22:28N 54°02' E 008°08'0 0.2
2014-Jul-16 21:31N 54°02' E 008°08'0 0.0
2014-Jul-16 20:32N 54°02' E 008°07'0 0.0
2014-Jul-16 19:31N 54°02' E 008°07'0 0.0
2014-Jul-16 18:32N 54°02' E 008°07'0 0.0
2014-Jul-16 17:29N 54°02' E 008°07'0 0.0
2014-Jul-16 16:32N 54°02' E 008°07'0 0.3
2014-Jul-16 15:32N 54°02' E 008°08'0 0.1
2014-Jul-16 14:32N 54°02' E 008°08'0 0.0
2014-Jul-16 13:31N 54°02' E 008°08'1 1.0
2014-Jul-16 12:34N 54°02' E 008°09'9 8.8
2014-Jul-16 11:33N 53°59' E 008°24'9 8.9
2014-Jul-16 10:33N 53°57' E 008°38'1211.6
2014-Jul-16 09:33N 53°51' E 008°55'1312.5
2014-Jul-16 08:33N 53°52' E 009°16'1313.0
2014-Jul-16 07:33N 53°42' E 009°30'1111.0
2014-Jul-16 06:33N 53°34' E 009°42'9 8.5
2014-Jul-16 05:33N 53°32' E 009°56'2 2.2
2014-Jul-16 04:32N 53°32' E 009°60'0 0.0
2014-Jul-16 03:32N 53°32' E 009°60'0 0.0
2014-Jul-16 02:32N 53°32' E 009°60'0 0.0
2014-Jul-16 01:32N 53°32' E 009°60'0 0.0
2014-Jul-16 00:32N 53°32' E 009°60'0 0.0
2014-Jul-15 23:32N 53°32' E 009°60'0 0.0
2014-Jul-15 22:33N 53°32' E 009°60'0 0.0
2014-Jul-15 21:32N 53°32' E 009°60'0 0.5
2014-Jul-15 20:33N 53°32' E 009°59'6 5.9
2014-Jul-15 19:33N 53°33' E 009°50'9 9.0
2014-Jul-15 18:33N 53°36' E 009°35'1110.7
2014-Jul-15 17:33N 53°45' E 009°25'1212.2
2014-Jul-15 16:33N 53°53' E 009°09'1413.8
2014-Jul-15 15:34N 53°51' E 008°46'1615.7
2014-Jul-15 14:34N 53°59' E 008°24'1414.4
2014-Jul-15 13:33N 54°01' E 007°59'1515.0
2014-Jul-15 12:33N 54°09' E 007°38'1615.6
2014-Jul-15 11:33N 54°21' E 007°20'1616.5
2014-Jul-15 10:34N 54°37' E 007°20'1817.7
2014-Jul-15 09:33N 54°55' E 007°21'1817.8
2014-Jul-15 08:33N 55°13' E 007°20'1818.3
2014-Jul-15 07:33N 55°31' E 007°21'1817.9
2014-Jul-15 06:33N 55°49' E 007°24'13717.0
2014-Jul-14 22:28N 57°44' E 009°42'1718.6
2014-Jul-14 21:33N 57°49' E 010°12'1818.5
2014-Jul-14 20:33N 57°49' E 010°47'1818.4
2014-Jul-14 19:33N 57°41' E 011°18'1313.3
2014-Jul-14 18:34N 57°39' E 011°42'6 5.6
2014-Jul-14 17:31N 57°41' E 011°52'0 0.0
2014-Jul-14 16:31N 57°41' E 011°52'0 0.0
2014-Jul-14 15:31N 57°41' E 011°52'0 0.0
2014-Jul-14 14:31N 57°41' E 011°52'0 0.0
2014-Jul-14 13:31N 57°41' E 011°52'0 0.0
2014-Jul-14 12:31N 57°41' E 011°52'0 0.0
2014-Jul-14 11:31N 57°41' E 011°52'0 0.0
2014-Jul-14 10:31N 57°41' E 011°52'0 0.0
2014-Jul-14 09:31N 57°41' E 011°52'0 0.0
2014-Jul-14 08:31N 57°41' E 011°52'0 0.0
2014-Jul-14 07:31N 57°41' E 011°52'0 0.0
2014-Jul-14 06:31N 57°41' E 011°52'0 0.0
2014-Jul-14 05:31N 57°41' E 011°52'0 0.0
2014-Jul-14 04:31N 57°41' E 011°52'0 0.0
2014-Jul-14 03:31N 57°41' E 011°52'0 0.0
2014-Jul-14 02:31N 57°41' E 011°52'0 0.0
2014-Jul-14 01:31N 57°41' E 011°52'0 0.0
2014-Jul-14 00:31N 57°41' E 011°52'0 0.0
2014-Jul-13 23:31N 57°41' E 011°52'0 0.0
2014-Jul-13 22:31N 57°41' E 011°52'0 0.0
2014-Jul-13 21:31N 57°41' E 011°52'0 0.0
2014-Jul-13 20:31N 57°41' E 011°52'0 0.0
2014-Jul-13 19:28N 57°41' E 011°52'0 0.0
2014-Jul-13 18:31N 57°41' E 011°52'0 0.0
2014-Jul-13 17:31N 57°41' E 011°52'0 0.0
2014-Jul-13 16:31N 57°41' E 011°52'0 0.0
2014-Jul-13 15:31N 57°41' E 011°52'0 0.0
2014-Jul-13 14:31N 57°41' E 011°52'0 0.0
2014-Jul-13 13:31N 57°41' E 011°52'5 5.0
2014-Jul-13 12:33N 57°39' E 011°44'10 9.5
2014-Jul-13 11:33N 57°38' E 011°26'7 6.8
2014-Jul-13 10:33N 57°41' E 011°14'8 8.0
2014-Jul-13 09:33N 57°44' E 011°01'1110.6
2014-Jul-13 08:33N 57°48' E 010°42'1212.5
2014-Jul-13 07:33N 57°47' E 010°18'1313.2
2014-Jul-13 06:33N 57°44' E 009°54'6813.6
2014-Jul-13 01:33N 57°08' E 008°07'1414.0
2014-Jul-13 00:32N 56°59' E 007°46'1413.8
2014-Jul-12 23:33N 56°47' E 007°36'1413.8
2014-Jul-12 22:33N 56°34' E 007°26'1413.8
2014-Jul-12 21:33N 56°22' E 007°14'1414.1
2014-Jul-12 20:33N 56°10' E 007°01'1414.4
2014-Jul-12 19:33N 55°57' E 006°48'1514.6
2014-Jul-12 18:33N 55°45' E 006°35'1514.6
2014-Jul-12 17:33N 55°32' E 006°22'1414.5
2014-Jul-12 16:33N 55°20' E 006°09'1414.5
2014-Jul-12 15:33N 55°07' E 005°57'1514.3
2014-Jul-12 14:32N 54°54' E 005°45'1414.4
2014-Jul-12 13:33N 54°42' E 005°33'1414.3
2014-Jul-12 12:33N 54°30' E 005°20'1414.5
2014-Jul-12 11:33N 54°17' E 005°08'1414.3
2014-Jul-12 10:33N 54°05' E 004°55'1514.5
2014-Jul-12 09:33N 53°51' E 004°53'1414.4
2014-Jul-12 08:34N 53°36' E 004°49'1514.6
2014-Jul-12 07:33N 53°23' E 004°40'1514.8
2014-Jul-12 06:34N 53°10' E 004°29'1514.7
2014-Jul-12 05:33N 52°57' E 004°17'  
Track history (hours):
 
Tides and Currents Weather Stations Pressure Air Temp Water Temp Dewpoint Dewpoint Depression Visibility Wind Speed Wind Dir Waves Ship Positions

Atlantic Companion

Last reported at 2014-Jul-22 05:07 UTC. Time now 2014-Jul-22 07:22 UTC.
Position N 53°28' W 003°01'.

Length 292 m; beam 32.3 m; draft 11.6 m.

Type: Cargo ship. MMSI: 265142000.

Date/timePositionNaut miles runAvg speedWind from/ knotsBaromVisibWave heightAir tempDewpointWater temp
2014-Jul-22 05:07N 53°28' W 003°01'0 0.0
2014-Jul-22 00:31N 53°28' W 003°01'0 0.0
2014-Jul-21 23:25N 53°28' W 003°01'0 0.0
2014-Jul-21 22:31N 53°28' W 003°01'0 0.0
2014-Jul-21 21:31N 53°28' W 003°01'0 0.0
2014-Jul-21 20:31N 53°28' W 003°01'0 0.0
2014-Jul-21 20:13N 53°28' W 003°01'0 0.0
2014-Jul-21 19:31N 53°28' W 003°01'1 0.7
2014-Jul-21 18:33N 53°27' W 003°01'0 0.2
2014-Jul-21 17:33N 53°27' W 003°01'3 3.4
2014-Jul-21 16:33N 53°29' W 003°05'1010.2
2014-Jul-21 15:33N 53°31' W 003°22'2019.8
2014-Jul-21 14:33N 53°29' W 003°55'1717.0
2014-Jul-21 13:34N 53°28' W 004°23'80 8.9
2014-Jul-21 04:33N 52°18' W 005°29'1616.0
2014-Jul-21 03:33N 52°03' W 005°38'1616.3
2014-Jul-21 02:33N 51°48' W 005°47'20310.0
2014-Jul-20 06:22N 50°19' W 000°57'1614.9
2014-Jul-20 05:18N 50°23' W 000°33'1414.1
2014-Jul-20 04:20N 50°27' W 000°12'1013.4
2014-Jul-20 03:33N 50°29' E 000°04'1312.8
2014-Jul-20 02:33N 50°33' E 000°23'1312.9
2014-Jul-20 01:33N 50°38' E 000°42'1514.7
2014-Jul-20 00:33N 50°47' E 001°00'1615.9
2014-Jul-19 23:33N 50°56' E 001°20'1615.8
2014-Jul-19 22:33N 51°07' E 001°38'1514.8
2014-Jul-19 21:34N 51°19' E 001°53'10 9.9
2014-Jul-19 20:34N 51°23' E 002°07'1312.6
2014-Jul-19 19:34N 51°22' E 002°28'1312.9
2014-Jul-19 18:33N 51°22' E 002°48'1616.2
2014-Jul-19 17:33N 51°25' E 003°14'1414.4
2014-Jul-19 16:33N 51°26' E 003°37'1010.5
2014-Jul-19 15:33N 51°21' E 003°52'8 8.2
2014-Jul-19 14:33N 51°22' E 004°04'8 7.9
2014-Jul-19 13:33N 51°20' E 004°17'0 0.0
2014-Jul-19 12:33N 51°20' E 004°17'0 0.0
2014-Jul-19 11:33N 51°20' E 004°17'0 0.0
2014-Jul-19 10:33N 51°20' E 004°17'0 0.0
2014-Jul-19 09:33N 51°20' E 004°17'0 0.0
2014-Jul-19 08:33N 51°20' E 004°17'0 0.0
2014-Jul-19 07:33N 51°20' E 004°17'0 0.0
2014-Jul-19 06:33N 51°20' E 004°17'0 0.0
2014-Jul-19 05:33N 51°20' E 004°17'0 0.0
2014-Jul-19 04:33N 51°20' E 004°17'0 0.0
2014-Jul-19 03:33N 51°20' E 004°17'0 0.0
2014-Jul-19 02:33N 51°20' E 004°17'0 0.0
2014-Jul-19 01:33N 51°20' E 004°17'0 0.0
2014-Jul-19 00:33N 51°20' E 004°17'0 0.0
2014-Jul-18 23:33N 51°20' E 004°17'0 0.0
2014-Jul-18 22:33N 51°20' E 004°17'0 0.0
2014-Jul-18 21:33N 51°20' E 004°17'2 1.9
2014-Jul-18 20:34N 51°21' E 004°14'10 9.6
2014-Jul-18 19:33N 51°26' E 004°01'1211.6
2014-Jul-18 18:33N 51°24' E 003°43'9 9.2
2014-Jul-18 17:33N 51°25' E 003°28'1312.6
2014-Jul-18 16:32N 51°24' E 003°07'1010.6
2014-Jul-18 15:33N 51°34' E 003°09'1513.6
2014-Jul-18 14:27N 51°49' E 003°15'9 9.0
2014-Jul-18 13:24N 51°58' E 003°19'8 9.0
2014-Jul-18 12:33N 52°05' E 003°21'5 4.7
2014-Jul-18 11:33N 52°10' E 003°19'7 7.3
2014-Jul-18 10:33N 52°17' E 003°24'9 9.4
2014-Jul-18 09:33N 52°26' E 003°27'1313.4
2014-Jul-18 08:33N 52°39' E 003°31'9 8.7
2014-Jul-18 07:33N 52°47' E 003°34'0 0.3
2014-Jul-18 06:29N 52°48' E 003°34'0 0.1
2014-Jul-18 05:32N 52°48' E 003°34'0 0.1
2014-Jul-18 04:29N 52°47' E 003°34'0 0.0
2014-Jul-18 03:32N 52°47' E 003°34'0 0.0
2014-Jul-18 02:32N 52°47' E 003°34'0 0.0
2014-Jul-18 01:32N 52°47' E 003°34'2 1.8
2014-Jul-18 00:33N 52°47' E 003°37'9 9.4
2014-Jul-17 23:33N 52°52' E 003°50'1514.7
2014-Jul-17 22:33N 53°02' E 004°07'1414.0
2014-Jul-17 21:33N 53°12' E 004°24'1313.5
2014-Jul-17 20:34N 53°24' E 004°34'1313.0
2014-Jul-17 19:34N 53°32' E 004°51'1514.9
2014-Jul-17 18:34N 53°37' E 005°14'1615.8
2014-Jul-17 17:34N 53°42' E 005°40'1615.7
2014-Jul-17 16:33N 53°47' E 006°05'1515.1
2014-Jul-17 15:34N 53°50' E 006°30'1414.3
2014-Jul-17 14:33N 53°54' E 006°53'2713.3
2014-Jul-17 12:33N 54°01' E 007°37'1312.9
2014-Jul-17 11:33N 54°02' E 007°59'5 5.2
2014-Jul-17 10:32N 54°02' E 008°08'0 0.2
2014-Jul-17 09:32N 54°02' E 008°08'0 0.1
2014-Jul-17 08:32N 54°02' E 008°07'0 0.0
2014-Jul-17 07:32N 54°02' E 008°07'0 0.0
2014-Jul-17 06:31N 54°02' E 008°07'0 0.0
2014-Jul-17 05:32N 54°02' E 008°07'0 0.1
2014-Jul-17 04:32N 54°02' E 008°08'0 0.2
2014-Jul-17 03:31N 54°02' E 008°08'0 0.1
2014-Jul-17 02:31N 54°02' E 008°08'0 0.0
2014-Jul-17 01:32N 54°02' E 008°08'0 0.0
2014-Jul-17 00:32N 54°02' E 008°08'0 0.0
2014-Jul-16 23:32N 54°02' E 008°08'0 0.1
2014-Jul-16 22:28N 54°02' E 008°08'0 0.2
2014-Jul-16 21:31N 54°02' E 008°08'0 0.0
2014-Jul-16 20:32N 54°02' E 008°07'0 0.0
2014-Jul-16 19:31N 54°02' E 008°07'0 0.0
2014-Jul-16 18:32N 54°02' E 008°07'0 0.0
2014-Jul-16 17:29N 54°02' E 008°07'0 0.0
2014-Jul-16 16:32N 54°02' E 008°07'0 0.3
2014-Jul-16 15:32N 54°02' E 008°08'0 0.1
2014-Jul-16 14:32N 54°02' E 008°08'0 0.0
2014-Jul-16 13:31N 54°02' E 008°08'1 1.0
2014-Jul-16 12:34N 54°02' E 008°09'9 8.8
2014-Jul-16 11:33N 53°59' E 008°24'9 8.9
2014-Jul-16 10:33N 53°57' E 008°38'1211.6
2014-Jul-16 09:33N 53°51' E 008°55'1312.5
2014-Jul-16 08:33N 53°52' E 009°16'1313.0
2014-Jul-16 07:33N 53°42' E 009°30'1111.0
2014-Jul-16 06:33N 53°34' E 009°42'9 8.5
2014-Jul-16 05:33N 53°32' E 009°56'2 2.2
2014-Jul-16 04:32N 53°32' E 009°60'0 0.0
2014-Jul-16 03:32N 53°32' E 009°60'0 0.0
2014-Jul-16 02:32N 53°32' E 009°60'0 0.0
2014-Jul-16 01:32N 53°32' E 009°60'0 0.0
2014-Jul-16 00:32N 53°32' E 009°60'0 0.0
2014-Jul-15 23:32N 53°32' E 009°60'0 0.0
2014-Jul-15 22:33N 53°32' E 009°60'0 0.0
2014-Jul-15 21:32N 53°32' E 009°60'0 0.5
2014-Jul-15 20:33N 53°32' E 009°59'6 5.9
2014-Jul-15 19:33N 53°33' E 009°50'9 9.0
2014-Jul-15 18:33N 53°36' E 009°35'1110.7
2014-Jul-15 17:33N 53°45' E 009°25'1212.2
2014-Jul-15 16:33N 53°53' E 009°09'1413.8
2014-Jul-15 15:34N 53°51' E 008°46'1615.7
2014-Jul-15 14:34N 53°59' E 008°24'1414.4
2014-Jul-15 13:33N 54°01' E 007°59'1515.0
2014-Jul-15 12:33N 54°09' E 007°38'1615.6
2014-Jul-15 11:33N 54°21' E 007°20'1616.5
2014-Jul-15 10:34N 54°37' E 007°20'1817.7
2014-Jul-15 09:33N 54°55' E 007°21'1817.8
2014-Jul-15 08:33N 55°13' E 007°20'1818.3
2014-Jul-15 07:33N 55°31' E 007°21'1817.9
2014-Jul-15 06:33N 55°49' E 007°24'13717.0
2014-Jul-14 22:28N 57°44' E 009°42'1718.6
2014-Jul-14 21:33N 57°49' E 010°12'1818.5
2014-Jul-14 20:33N 57°49' E 010°47'1818.4
2014-Jul-14 19:33N 57°41' E 011°18'1313.3
2014-Jul-14 18:34N 57°39' E 011°42'6 5.6
2014-Jul-14 17:31N 57°41' E 011°52'0 0.0
2014-Jul-14 16:31N 57°41' E 011°52'0 0.0
2014-Jul-14 15:31N 57°41' E 011°52'0 0.0
2014-Jul-14 14:31N 57°41' E 011°52'0 0.0
2014-Jul-14 13:31N 57°41' E 011°52'0 0.0
2014-Jul-14 12:31N 57°41' E 011°52'0 0.0
2014-Jul-14 11:31N 57°41' E 011°52'0 0.0
2014-Jul-14 10:31N 57°41' E 011°52'0 0.0
2014-Jul-14 09:31N 57°41' E 011°52'0 0.0
2014-Jul-14 08:31N 57°41' E 011°52'0 0.0
2014-Jul-14 07:31N 57°41' E 011°52'0 0.0
2014-Jul-14 06:31N 57°41' E 011°52'0 0.0
2014-Jul-14 05:31N 57°41' E 011°52'0 0.0
2014-Jul-14 04:31N 57°41' E 011°52'0 0.0
2014-Jul-14 03:31N 57°41' E 011°52'0 0.0
2014-Jul-14 02:31N 57°41' E 011°52'0 0.0
2014-Jul-14 01:31N 57°41' E 011°52'0 0.0
2014-Jul-14 00:31N 57°41' E 011°52'0 0.0
2014-Jul-13 23:31N 57°41' E 011°52'0 0.0
2014-Jul-13 22:31N 57°41' E 011°52'0 0.0
2014-Jul-13 21:31N 57°41' E 011°52'0 0.0
2014-Jul-13 20:31N 57°41' E 011°52'0 0.0
2014-Jul-13 19:28N 57°41' E 011°52'0 0.0
2014-Jul-13 18:31N 57°41' E 011°52'0 0.0
2014-Jul-13 17:31N 57°41' E 011°52'0 0.0
2014-Jul-13 16:31N 57°41' E 011°52'0 0.0
2014-Jul-13 15:31N 57°41' E 011°52'0 0.0
2014-Jul-13 14:31N 57°41' E 011°52'0 0.0
2014-Jul-13 13:31N 57°41' E 011°52'5 5.0
2014-Jul-13 12:33N 57°39' E 011°44'10 9.5
2014-Jul-13 11:33N 57°38' E 011°26'7 6.8
2014-Jul-13 10:33N 57°41' E 011°14'8 8.0
2014-Jul-13 09:33N 57°44' E 011°01'1110.6
2014-Jul-13 08:33N 57°48' E 010°42'1212.5
2014-Jul-13 07:33N 57°47' E 010°18'1313.2
2014-Jul-13 06:33N 57°44' E 009°54'6813.6
2014-Jul-13 01:33N 57°08' E 008°07'1414.0
2014-Jul-13 00:32N 56°59' E 007°46'1413.8
2014-Jul-12 23:33N 56°47' E 007°36'1413.8
2014-Jul-12 22:33N 56°34' E 007°26'1413.8
2014-Jul-12 21:33N 56°22' E 007°14'1414.1
2014-Jul-12 20:33N 56°10' E 007°01'1414.4
2014-Jul-12 19:33N 55°57' E 006°48'1514.6
2014-Jul-12 18:33N 55°45' E 006°35'1514.6
2014-Jul-12 17:33N 55°32' E 006°22'1414.5
2014-Jul-12 16:33N 55°20' E 006°09'1414.5
2014-Jul-12 15:33N 55°07' E 005°57'1514.3
2014-Jul-12 14:32N 54°54' E 005°45'1414.4
2014-Jul-12 13:33N 54°42' E 005°33'1414.3
2014-Jul-12 12:33N 54°30' E 005°20'1414.5
2014-Jul-12 11:33N 54°17' E 005°08'1414.3
2014-Jul-12 10:33N 54°05' E 004°55'1514.5
2014-Jul-12 09:33N 53°51' E 004°53'1414.4
2014-Jul-12 08:34N 53°36' E 004°49'1514.6
2014-Jul-12 07:33N 53°23' E 004°40'1514.8
2014-Jul-12 06:34N 53°10' E 004°29'1514.7
2014-Jul-12 05:33N 52°57' E 004°17'  

Dump ship's entire track history